createdAt,value
2018-09-29T00:01:01.980Z,13.50
2018-09-29T00:03:30.773Z,12.73
2018-09-29T00:05:59.364Z,11.17
2018-09-29T00:08:28.054Z,10.20
2018-09-29T00:10:56.832Z,13.37
2018-09-29T00:13:25.341Z,16.57
2018-09-29T00:15:54.180Z,12.47
2018-09-29T00:18:22.601Z,17.23
2018-09-29T00:20:51.107Z,11.30
2018-09-29T00:23:19.838Z,11.63
2018-09-29T00:25:48.426Z,14.28
2018-09-29T00:28:17.033Z,13.20
2018-09-29T00:30:45.598Z,13.70
2018-09-29T00:33:14.151Z,11.57
2018-09-29T00:35:42.870Z,10.27
2018-09-29T00:38:11.552Z,9.63
2018-09-29T00:40:40.695Z,10.70
2018-09-29T00:43:09.826Z,11.57
2018-09-29T00:45:38.307Z,7.40
2018-09-29T00:48:06.912Z,12.03
2018-09-29T00:50:35.590Z,7.47
2018-09-29T00:53:04.650Z,11.23
2018-09-29T00:55:33.266Z,9.30
2018-09-29T00:58:01.870Z,10.93
2018-09-29T01:00:30.380Z,11.57
2018-09-29T01:02:59.071Z,9.80
2018-09-29T01:05:27.852Z,11.87
2018-09-29T01:07:56.527Z,10.13
2018-09-29T01:10:25.195Z,15.00
2018-09-29T01:12:54.122Z,8.80
2018-09-29T01:15:22.761Z,8.80
2018-09-29T01:17:51.196Z,12.30
2018-09-29T01:20:19.645Z,10.97
2018-09-29T01:22:48.012Z,13.50
2018-09-29T01:25:16.628Z,11.70
2018-09-29T01:27:45.167Z,11.73
2018-09-29T01:30:13.832Z,12.10
2018-09-29T01:32:42.418Z,15.85
2018-09-29T01:35:11.322Z,11.97
2018-09-29T01:37:39.794Z,13.30
2018-09-29T01:40:08.798Z,11.63
2018-09-29T01:42:37.541Z,12.70
2018-09-29T01:45:06.555Z,13.23
2018-09-29T01:47:35.173Z,9.73
2018-09-29T01:50:03.802Z,12.63
2018-09-29T01:52:32.314Z,8.17
2018-09-29T02:00:23.298Z,11.40
2018-09-29T02:02:52.093Z,9.13
2018-09-29T02:05:20.904Z,8.67
2018-09-29T02:07:49.896Z,9.03
2018-09-29T02:10:18.526Z,11.22
2018-09-29T02:12:47.032Z,10.33
2018-09-29T02:15:15.544Z,10.20
2018-09-29T02:17:44.033Z,12.37
2018-09-29T02:20:12.552Z,8.77
2018-09-29T02:22:40.998Z,13.10
2018-09-29T02:25:09.497Z,11.70
2018-09-29T02:27:38.245Z,12.80
2018-09-29T02:30:06.792Z,9.87
2018-09-29T02:32:35.384Z,15.53
2018-09-29T02:35:04.181Z,9.77
2018-09-29T02:37:33.166Z,14.27
2018-09-29T02:40:01.959Z,7.90
2018-09-29T02:42:30.640Z,13.23
2018-09-29T02:44:59.238Z,10.33
2018-09-29T02:47:27.699Z,12.63
2018-09-29T02:49:56.290Z,10.83
2018-09-29T02:52:25.074Z,16.77
2018-09-29T02:54:53.884Z,13.47
2018-09-29T02:57:22.603Z,11.10
2018-09-29T02:59:51.336Z,9.00
2018-09-29T03:02:20.065Z,13.53
2018-09-29T03:04:48.669Z,13.10
2018-09-29T03:07:17.397Z,11.00
2018-09-29T03:09:45.811Z,8.47
2018-09-29T03:12:14.492Z,8.53
2018-09-29T03:14:43.152Z,11.73
2018-09-29T03:17:11.537Z,9.10
2018-09-29T03:19:40.018Z,11.80
2018-09-29T03:22:08.950Z,13.93
2018-09-29T03:24:37.908Z,9.10
2018-09-29T03:27:06.804Z,15.20
2018-09-29T03:29:35.556Z,13.20
2018-09-29T03:32:04.082Z,11.97
2018-09-29T03:34:32.680Z,15.47
2018-09-29T03:37:01.458Z,14.53
2018-09-29T03:39:30.147Z,11.30
2018-09-29T03:41:58.651Z,19.00
2018-09-29T03:44:27.207Z,13.40
2018-09-29T03:46:55.860Z,19.60
2018-09-29T03:49:24.833Z,14.90
2018-09-29T03:51:53.837Z,10.60
2018-09-29T03:54:22.856Z,7.53
2018-09-29T03:56:51.929Z,9.10
2018-09-29T03:59:20.508Z,10.97
2018-09-29T04:01:49.147Z,10.40
2018-09-29T04:04:17.995Z,9.93
2018-09-29T04:06:47.447Z,10.40
2018-09-29T04:09:16.103Z,9.97
2018-09-29T04:11:44.582Z,14.13
2018-09-29T04:14:13.041Z,9.90
2018-09-29T04:16:41.507Z,12.00
2018-09-29T04:19:10.116Z,10.23
2018-09-29T04:21:45.969Z,10.23
2018-09-29T04:24:15.214Z,13.97
2018-09-29T04:26:43.889Z,11.07
2018-09-29T04:29:13.435Z,10.60
2018-09-29T04:31:42.643Z,8.40
2018-09-29T04:34:12.242Z,7.40
2018-09-29T04:36:41.265Z,8.83
2018-09-29T04:39:12.794Z,10.83
2018-09-29T04:41:41.605Z,9.43
2018-09-29T04:44:11.008Z,9.30
2018-09-29T04:46:41.023Z,12.30
2018-09-29T04:49:10.471Z,10.53
2018-09-29T04:51:39.466Z,12.10
2018-09-29T04:54:08.318Z,12.80
2018-09-29T04:56:37.593Z,10.90
2018-09-29T05:01:59.428Z,9.53
2018-09-29T05:04:28.317Z,16.42
2018-09-29T05:06:56.964Z,12.23
2018-09-29T05:09:25.448Z,12.00
2018-09-29T05:11:54.209Z,9.98
2018-09-29T05:14:22.706Z,12.68
2018-09-29T05:16:51.341Z,8.77
2018-09-29T05:19:19.801Z,9.10
2018-09-29T05:21:48.440Z,11.23
2018-09-29T05:24:17.136Z,10.30
2018-09-29T05:26:45.743Z,9.83
2018-09-29T05:29:14.489Z,14.90
2018-09-29T05:31:43.293Z,12.43
2018-09-29T05:34:12.034Z,12.00
2018-09-29T05:36:40.793Z,9.73
2018-09-29T05:39:11.039Z,14.57
2018-09-29T05:41:39.911Z,11.90
2018-09-29T05:44:09.177Z,13.20
2018-09-29T05:46:38.248Z,10.37
2018-09-29T05:49:06.780Z,10.20
2018-09-29T05:51:35.644Z,25.37
2018-09-29T05:54:04.689Z,13.00
2018-09-29T05:56:33.320Z,19.77
2018-09-29T05:59:01.904Z,14.93
2018-09-29T06:01:30.683Z,14.10
2018-09-29T06:03:59.645Z,9.00
2018-09-29T06:06:30.933Z,11.93
2018-09-29T06:09:00.321Z,12.10
2018-09-29T06:11:28.838Z,11.97
2018-09-29T06:13:57.666Z,10.53
2018-09-29T06:16:26.183Z,13.80
2018-09-29T06:18:54.991Z,11.10
2018-09-29T06:21:24.183Z,11.00
2018-09-29T06:23:52.976Z,14.40
2018-09-29T06:26:21.808Z,11.10
2018-09-29T06:28:50.283Z,10.47
2018-09-29T06:31:19.027Z,12.00
2018-09-29T06:33:47.725Z,11.30
2018-09-29T06:36:16.538Z,12.17
2018-09-29T06:38:45.517Z,12.50
2018-09-29T06:41:14.703Z,14.43
2018-09-29T06:43:43.577Z,10.85
2018-09-29T06:46:12.041Z,10.43
2018-09-29T06:48:40.715Z,10.63
2018-09-29T06:51:09.878Z,12.50
2018-09-29T06:53:40.191Z,9.00
2018-09-29T06:56:10.953Z,8.70
2018-09-29T06:58:39.593Z,10.70
2018-09-29T07:01:08.810Z,10.67
2018-09-29T07:03:37.834Z,14.43
2018-09-29T07:06:06.819Z,10.23
2018-09-29T07:08:35.309Z,11.20
2018-09-29T07:11:03.800Z,11.23
2018-09-29T07:13:32.430Z,8.90
2018-09-29T07:16:01.302Z,8.60
2018-09-29T07:18:30.277Z,9.00
2018-09-29T07:20:59.088Z,10.97
2018-09-29T07:23:27.690Z,12.30
2018-09-29T07:25:56.325Z,9.10
2018-09-29T07:28:25.066Z,10.03
2018-09-29T07:30:55.334Z,9.60
2018-09-29T07:33:24.195Z,12.17
2018-09-29T07:35:53.134Z,10.20
2018-09-29T07:38:22.541Z,13.20
2018-09-29T07:40:51.601Z,10.55
2018-09-29T07:43:20.143Z,10.03
2018-09-29T07:45:48.824Z,15.87
2018-09-29T07:48:17.583Z,11.53
2018-09-29T07:50:48.105Z,13.43
2018-09-29T07:53:17.255Z,10.47
2018-09-29T07:55:46.455Z,9.80
2018-09-29T07:58:15.744Z,11.00
2018-09-29T08:00:44.493Z,11.00
2018-09-29T08:03:13.062Z,9.73
2018-09-29T08:05:41.617Z,10.47
2018-09-29T08:08:10.078Z,17.63
2018-09-29T08:10:38.604Z,12.90
2018-09-29T08:13:07.509Z,13.23
2018-09-29T08:15:36.685Z,8.97
2018-09-29T08:18:05.626Z,12.70
2018-09-29T08:20:34.528Z,10.27
2018-09-29T08:23:03.403Z,7.67
2018-09-29T08:25:32.207Z,10.25
2018-09-29T08:28:00.900Z,7.70
2018-09-29T08:30:29.353Z,11.43
2018-09-29T08:32:58.045Z,20.32
2018-09-29T08:35:27.089Z,7.90
2018-09-29T08:37:55.907Z,22.57
2018-09-29T08:40:24.808Z,11.37
2018-09-29T08:42:54.029Z,10.73
2018-09-29T08:45:23.242Z,11.90
2018-09-29T08:47:52.305Z,13.85
2018-09-29T08:50:21.129Z,9.80
2018-09-29T08:52:50.120Z,9.57
2018-09-29T08:55:18.868Z,11.53
2018-09-29T08:57:47.331Z,8.73
2018-09-29T09:00:16.122Z,8.70
2018-09-29T09:02:44.655Z,12.33
2018-09-29T09:05:13.452Z,7.30
2018-09-29T09:07:42.120Z,9.10
2018-09-29T09:10:10.645Z,14.20
2018-09-29T09:12:39.317Z,9.97
2018-09-29T09:15:08.458Z,8.47
2018-09-29T09:17:37.275Z,9.43
2018-09-29T09:20:05.963Z,10.30
2018-09-29T09:22:34.501Z,9.13
2018-09-29T09:25:03.152Z,9.23
2018-09-29T09:27:32.141Z,11.10
2018-09-29T09:30:01.156Z,9.13
2018-09-29T09:32:29.799Z,10.13
2018-09-29T09:34:58.589Z,8.03
2018-09-29T09:37:27.809Z,9.40
2018-09-29T09:39:56.644Z,8.30
2018-09-29T09:42:25.534Z,9.93
2018-09-29T09:44:54.413Z,10.38
2018-09-29T09:47:23.538Z,9.60
2018-09-29T09:49:52.367Z,10.33
2018-09-29T09:52:20.945Z,9.50
2018-09-29T09:54:49.648Z,7.70
2018-09-29T09:57:18.409Z,8.47
2018-09-29T09:59:46.912Z,12.03
2018-09-29T10:02:20.826Z,8.53
2018-09-29T10:04:49.564Z,9.40
2018-09-29T10:07:18.276Z,10.40
2018-09-29T10:09:46.727Z,8.53
2018-09-29T10:12:16.190Z,9.20
2018-09-29T10:14:45.206Z,9.30
2018-09-29T10:17:14.192Z,12.80
2018-09-29T10:19:43.114Z,11.20
2018-09-29T10:22:12.277Z,8.93
2018-09-29T10:24:40.926Z,11.20
2018-09-29T10:27:10.522Z,14.43
2018-09-29T10:29:39.503Z,12.60
2018-09-29T10:32:07.990Z,9.17
2018-09-29T10:34:36.581Z,9.63
2018-09-29T10:37:05.392Z,13.50
2018-09-29T10:39:34.427Z,16.80
2018-09-29T10:42:03.238Z,11.33
2018-09-29T10:44:31.895Z,9.93
2018-09-29T10:47:00.627Z,7.33
2018-09-29T10:49:29.592Z,11.23
2018-09-29T10:51:58.371Z,11.07
2018-09-29T10:54:27.494Z,10.50
2018-09-29T10:56:55.990Z,11.53
2018-09-29T10:59:24.495Z,10.33
2018-09-29T11:01:53.078Z,9.20
2018-09-29T11:04:21.610Z,10.35
2018-09-29T11:06:50.106Z,9.87
2018-09-29T11:09:18.635Z,13.10
2018-09-29T11:11:47.254Z,9.43
2018-09-29T11:14:16.512Z,14.70
2018-09-29T11:16:45.171Z,8.80
2018-09-29T11:19:13.998Z,9.50
2018-09-29T11:21:42.669Z,11.03
2018-09-29T11:24:11.312Z,9.73
2018-09-29T11:26:40.120Z,9.93
2018-09-29T11:29:09.094Z,8.03
2018-09-29T11:31:37.961Z,12.07
2018-09-29T11:34:06.773Z,9.67
2018-09-29T11:36:35.401Z,12.60
2018-09-29T11:39:06.041Z,9.83
2018-09-29T11:41:38.888Z,14.40
2018-09-29T11:44:08.155Z,12.60
2018-09-29T11:46:37.338Z,10.83
2018-09-29T11:49:06.922Z,9.53
2018-09-29T11:51:35.695Z,10.00
2018-09-29T11:54:05.293Z,12.77
2018-09-29T11:56:34.027Z,10.63
2018-09-29T11:59:02.757Z,11.03
2018-09-29T12:01:31.571Z,10.63
2018-09-29T12:04:00.444Z,12.25
2018-09-29T12:06:29.550Z,18.23
2018-09-29T12:08:58.312Z,10.43
2018-09-29T12:11:27.198Z,9.50
2018-09-29T12:13:55.649Z,12.03
2018-09-29T12:16:24.682Z,13.60
2018-09-29T12:18:53.763Z,15.37
2018-09-29T12:21:22.999Z,9.90
2018-09-29T12:23:51.831Z,9.90
2018-09-29T12:26:20.673Z,9.17
2018-09-29T12:28:49.970Z,10.60
2018-09-29T12:31:18.902Z,15.07
2018-09-29T12:33:47.966Z,13.62
2018-09-29T12:36:16.900Z,11.33
2018-09-29T12:38:45.561Z,12.27
2018-09-29T12:41:14.395Z,8.47
2018-09-29T12:43:43.210Z,9.80
2018-09-29T12:46:12.064Z,10.10
2018-09-29T12:48:40.968Z,10.90
2018-09-29T12:51:09.862Z,12.23
2018-09-29T12:53:38.572Z,11.27
2018-09-29T12:56:07.265Z,10.83
2018-09-29T12:58:35.984Z,10.60
2018-09-29T13:01:04.444Z,11.07
2018-09-29T13:03:33.125Z,16.07
2018-09-29T13:06:02.874Z,12.25
2018-09-29T13:08:31.916Z,14.53
2018-09-29T13:11:00.813Z,12.30
2018-09-29T13:13:29.595Z,11.77
2018-09-29T13:15:58.395Z,9.80
2018-09-29T13:18:26.875Z,13.32
2018-09-29T13:20:55.476Z,10.00
2018-09-29T13:23:24.225Z,8.23
2018-09-29T13:25:52.903Z,11.43
2018-09-29T13:28:21.535Z,13.83
2018-09-29T13:30:50.370Z,11.40
2018-09-29T13:33:19.355Z,11.50
2018-09-29T13:35:47.943Z,12.30
2018-09-29T13:38:17.642Z,10.70
2018-09-29T13:40:46.084Z,14.20
2018-09-29T13:43:14.640Z,9.33
2018-09-29T13:45:43.488Z,16.30
2018-09-29T13:48:12.227Z,11.67
2018-09-29T13:50:41.428Z,15.17
2018-09-29T13:53:10.010Z,12.17
2018-09-29T13:55:38.601Z,12.17
2018-09-29T13:58:07.253Z,10.80
2018-09-29T14:00:35.969Z,10.03
2018-09-29T14:03:04.626Z,13.22
2018-09-29T14:05:33.813Z,10.23
2018-09-29T14:08:02.548Z,10.47
2018-09-29T14:10:31.841Z,11.63
2018-09-29T14:13:00.573Z,12.57
2018-09-29T14:15:29.247Z,10.00
2018-09-29T14:17:58.008Z,10.50
2018-09-29T14:20:26.788Z,11.20
2018-09-29T14:22:56.027Z,10.83
2018-09-29T14:25:25.078Z,9.33
2018-09-29T14:27:54.008Z,9.43
2018-09-29T14:30:23.164Z,9.50
2018-09-29T14:32:52.081Z,9.80
2018-09-29T14:35:20.619Z,11.73
2018-09-29T14:37:49.257Z,11.65
2018-09-29T14:40:18.227Z,11.00
2018-09-29T14:42:47.637Z,16.07
2018-09-29T14:45:16.492Z,14.60
2018-09-29T14:47:45.207Z,11.83
2018-09-29T14:50:13.899Z,10.83
2018-09-29T14:52:42.455Z,10.97
2018-09-29T14:55:11.158Z,8.97
2018-09-29T14:57:39.613Z,12.53
2018-09-29T15:00:08.050Z,9.07
2018-09-29T15:02:36.848Z,12.35
2018-09-29T15:05:05.800Z,10.43
2018-09-29T15:07:34.890Z,10.37
2018-09-29T15:10:03.713Z,10.30
2018-09-29T15:12:32.465Z,9.45
2018-09-29T15:15:01.031Z,10.57
2018-09-29T15:17:29.750Z,11.07
2018-09-29T15:19:58.192Z,11.90
2018-09-29T15:22:26.810Z,9.77
2018-09-29T15:24:56.329Z,12.17
2018-09-29T15:27:24.904Z,11.80
2018-09-29T15:29:53.454Z,9.40
2018-09-29T15:32:22.303Z,12.67
2018-09-29T15:34:51.281Z,10.20
2018-09-29T15:37:20.112Z,10.20
2018-09-29T15:39:49.014Z,11.10
2018-09-29T15:42:17.897Z,13.93
2018-09-29T15:44:46.415Z,12.57
2018-09-29T15:47:14.882Z,12.90
2018-09-29T15:49:43.818Z,10.13
2018-09-29T15:52:12.574Z,10.17
2018-09-29T15:54:41.162Z,11.43
2018-09-29T15:57:09.680Z,8.90
2018-09-29T15:59:38.279Z,9.60
2018-09-29T16:02:07.265Z,8.67
2018-09-29T16:04:35.910Z,8.07
2018-09-29T16:07:04.525Z,8.63
2018-09-29T16:09:33.293Z,13.13
2018-09-29T16:12:02.180Z,8.53
2018-09-29T16:14:31.018Z,8.53
2018-09-29T16:17:00.004Z,13.37
2018-09-29T16:19:28.813Z,13.27
2018-09-29T16:21:57.633Z,9.93
2018-09-29T16:24:26.564Z,11.73
2018-09-29T16:26:55.622Z,12.47
2018-09-29T16:29:24.418Z,13.67
2018-09-29T16:31:53.235Z,10.57
2018-09-29T16:34:21.991Z,8.83
2018-09-29T16:36:50.469Z,9.53
2018-09-29T16:39:19.031Z,11.37
2018-09-29T16:41:47.751Z,10.33
2018-09-29T16:44:16.420Z,14.47
2018-09-29T16:46:45.108Z,9.20
2018-09-29T16:49:14.033Z,11.10
2018-09-29T16:51:42.833Z,9.20
2018-09-29T16:54:11.579Z,10.03
2018-09-29T16:56:40.236Z,10.63
2018-09-29T16:59:08.929Z,12.70
2018-09-29T17:01:37.807Z,9.43
2018-09-29T17:04:06.846Z,9.87
2018-09-29T17:06:35.728Z,9.20
2018-09-29T17:09:06.480Z,11.27
2018-09-29T17:11:35.326Z,10.33
2018-09-29T17:14:04.307Z,13.90
2018-09-29T17:16:33.297Z,9.03
2018-09-29T17:19:02.103Z,13.03
2018-09-29T17:21:30.825Z,11.03
2018-09-29T17:23:59.741Z,9.07
2018-09-29T17:26:28.528Z,11.23
2018-09-29T17:28:57.420Z,11.90
2018-09-29T17:31:26.169Z,10.67
2018-09-29T17:33:54.752Z,9.40
2018-09-29T17:36:23.163Z,9.87
2018-09-29T17:38:52.118Z,10.45
2018-09-29T17:41:20.934Z,11.10
2018-09-29T17:43:49.907Z,12.73
2018-09-29T17:46:19.134Z,8.80
2018-09-29T17:48:47.797Z,10.90
2018-09-29T17:51:16.372Z,10.10
2018-09-29T17:53:45.352Z,11.03
2018-09-29T17:56:20.294Z,12.80
2018-09-29T17:58:49.215Z,12.53
2018-09-29T18:01:18.093Z,13.50
2018-09-29T18:03:46.857Z,12.73
2018-09-29T18:06:15.443Z,12.37
2018-09-29T18:08:44.140Z,12.27
2018-09-29T18:11:12.730Z,10.97
2018-09-29T18:13:41.685Z,11.38
2018-09-29T18:16:10.330Z,13.17
2018-09-29T18:18:39.404Z,13.03
2018-09-29T18:21:08.690Z,8.90
2018-09-29T18:23:37.786Z,10.80
2018-09-29T18:26:13.229Z,10.87
2018-09-29T18:28:41.757Z,14.33
2018-09-29T18:31:10.409Z,12.23
2018-09-29T18:33:38.957Z,10.03
2018-09-29T18:36:07.588Z,10.53
2018-09-29T18:38:36.655Z,10.70
2018-09-29T18:41:05.217Z,12.97
2018-09-29T18:43:34.048Z,13.60
2018-09-29T18:46:02.811Z,26.50
2018-09-29T18:48:31.599Z,40.97
2018-09-29T18:51:00.283Z,76.07
2018-09-29T18:53:29.056Z,71.03
2018-09-29T18:55:57.710Z,58.60
2018-09-29T18:58:26.673Z,32.27
2018-09-29T19:00:55.544Z,27.98
2018-09-29T19:03:33.633Z,67.03
2018-09-29T19:06:02.260Z,29.10
2018-09-29T19:08:30.841Z,30.73
2018-09-29T19:10:59.526Z,29.55
2018-09-29T19:13:28.048Z,22.23
2018-09-29T19:15:56.694Z,42.53
2018-09-29T19:18:25.512Z,29.57
2018-09-29T19:20:54.676Z,27.50
2018-09-29T19:23:23.110Z,24.02
2018-09-29T19:25:51.639Z,26.60
2018-09-29T19:28:20.165Z,32.53
2018-09-29T19:30:48.681Z,28.63
2018-09-29T19:33:17.086Z,37.42
2018-09-29T19:35:45.980Z,31.40
2018-09-29T19:38:14.772Z,30.90
2018-09-29T19:40:43.554Z,35.03
2018-09-29T19:43:12.245Z,28.00
2018-09-29T19:45:41.020Z,33.87
2018-09-29T19:48:09.913Z,22.50
2018-09-29T19:50:38.948Z,11.50
2018-09-29T19:53:08.430Z,21.27
2018-09-29T19:55:38.360Z,27.67
2018-09-29T19:58:07.154Z,20.73
2018-09-29T20:00:35.737Z,19.03
2018-09-29T20:03:04.370Z,11.83
2018-09-29T20:05:33.094Z,27.97
2018-09-29T20:08:01.841Z,27.23
2018-09-29T20:10:30.555Z,31.37
2018-09-29T20:12:59.422Z,26.67
2018-09-29T20:15:28.133Z,24.77
2018-09-29T20:17:56.685Z,23.03
2018-09-29T20:20:25.397Z,24.27
2018-09-29T20:22:53.950Z,21.37
2018-09-29T20:25:22.677Z,19.67
2018-09-29T20:27:51.163Z,13.67
2018-09-29T20:30:19.598Z,10.45
2018-09-29T20:32:48.345Z,10.40
2018-09-29T20:35:17.353Z,16.90
2018-09-29T20:37:46.016Z,18.30
2018-09-29T20:40:15.212Z,12.55
2018-09-29T20:42:43.650Z,11.90
2018-09-29T20:45:12.253Z,15.37
2018-09-29T20:47:40.972Z,17.30
2018-09-29T20:50:09.798Z,17.80
2018-09-29T20:52:38.460Z,21.20
2018-09-29T20:55:07.035Z,13.33
2018-09-29T20:57:35.690Z,12.17
2018-09-29T21:00:04.590Z,13.53
2018-09-29T21:02:33.557Z,10.00
2018-09-29T21:05:02.434Z,14.07
2018-09-29T21:07:31.073Z,20.83
2018-09-29T21:09:59.541Z,25.63
2018-09-29T21:12:28.344Z,23.20
2018-09-29T21:14:57.216Z,12.30
2018-09-29T21:17:25.898Z,14.07
2018-09-29T21:19:54.690Z,14.47
2018-09-29T21:22:23.229Z,16.00
2018-09-29T21:24:51.666Z,12.77
2018-09-29T21:27:20.109Z,15.43
2018-09-29T21:29:48.588Z,15.10
2018-09-29T21:32:17.290Z,11.23
2018-09-29T21:34:45.979Z,12.23
2018-09-29T21:37:14.766Z,13.37
2018-09-29T21:39:43.725Z,13.62
2018-09-29T21:42:12.345Z,8.43
2018-09-29T21:44:40.998Z,9.03
2018-09-29T21:47:09.461Z,12.07
2018-09-29T21:49:38.352Z,10.93
2018-09-29T21:52:07.432Z,12.17
2018-09-29T21:54:36.060Z,14.07
2018-09-29T21:57:04.782Z,13.37
2018-09-29T21:59:33.473Z,13.37
2018-09-29T22:02:02.140Z,17.13
2018-09-29T22:04:30.690Z,12.70
2018-09-29T22:06:59.540Z,16.03
2018-09-29T22:09:28.410Z,13.00
2018-09-29T22:11:57.111Z,15.78
2018-09-29T22:14:25.893Z,15.80
2018-09-29T22:16:55.315Z,10.90
2018-09-29T22:19:24.348Z,12.70
2018-09-29T22:21:53.334Z,14.67
2018-09-29T22:24:22.082Z,12.60
2018-09-29T22:26:50.651Z,13.13
2018-09-29T22:29:19.098Z,17.57
2018-09-29T22:31:47.847Z,13.27
2018-09-29T22:34:16.713Z,18.10
2018-09-29T22:36:45.155Z,18.57
2018-09-29T22:39:14.023Z,16.50
2018-09-29T22:41:42.569Z,10.83
2018-09-29T22:44:11.249Z,16.40
2018-09-29T22:46:40.344Z,19.30
2018-09-29T22:49:09.144Z,15.53
2018-09-29T22:51:38.394Z,14.90
2018-09-29T22:54:07.337Z,16.55
2018-09-29T22:56:36.296Z,16.23
2018-09-29T22:59:05.004Z,16.10
2018-09-29T23:01:33.649Z,15.80
2018-09-29T23:04:02.272Z,15.67
2018-09-29T23:06:31.026Z,13.10
2018-09-29T23:08:59.894Z,13.23
2018-09-29T23:11:28.822Z,13.87
2018-09-29T23:13:57.631Z,18.70
2018-09-29T23:16:26.201Z,21.53
2018-09-29T23:18:55.110Z,14.53
2018-09-29T23:21:23.853Z,11.50
2018-09-29T23:23:52.349Z,11.47
2018-09-29T23:26:20.967Z,13.67
2018-09-29T23:28:50.079Z,13.30
2018-09-29T23:31:18.815Z,10.58
2018-09-29T23:33:47.708Z,13.40
2018-09-29T23:36:16.487Z,10.80
2018-09-29T23:38:45.220Z,8.70
2018-09-29T23:41:13.903Z,10.43
2018-09-29T23:43:42.725Z,10.60
2018-09-29T23:46:11.581Z,13.43
2018-09-29T23:48:40.217Z,11.77
2018-09-29T23:51:09.070Z,10.17
2018-09-29T23:53:37.568Z,12.70
2018-09-29T23:56:06.423Z,12.30
2018-09-29T23:58:35.091Z,10.50
